createdAt,value
2023-02-13T00:01:53.516Z,15.70
2023-02-13T00:04:19.982Z,15.48
2023-02-13T00:06:47.973Z,16.67
2023-02-13T00:09:14.912Z,15.65
2023-02-13T00:11:41.650Z,16.45
2023-02-13T00:14:08.446Z,14.07
2023-02-13T00:16:34.819Z,14.90
2023-02-13T00:19:01.183Z,15.23
2023-02-13T00:21:27.672Z,14.45
2023-02-13T00:23:54.113Z,16.15
2023-02-13T00:26:20.586Z,14.80
2023-02-13T00:28:47.418Z,16.75
2023-02-13T00:31:19.639Z,13.80
2023-02-13T00:33:46.509Z,14.77
2023-02-13T00:36:15.271Z,14.40
2023-02-13T00:38:42.585Z,15.52
2023-02-13T00:41:10.024Z,13.75
2023-02-13T00:43:37.331Z,14.38
2023-02-13T00:46:04.627Z,15.13
2023-02-13T00:48:32.898Z,14.75
2023-02-13T00:50:59.979Z,13.85
2023-02-13T00:53:27.369Z,13.95
2023-02-13T00:55:54.000Z,13.73
2023-02-13T00:58:20.901Z,16.27
2023-02-13T01:00:47.841Z,15.68
2023-02-13T01:03:15.355Z,15.07
2023-02-13T01:05:42.249Z,16.30
2023-02-13T01:08:09.196Z,15.68
2023-02-13T01:10:37.962Z,16.00
2023-02-13T01:13:04.448Z,14.57
2023-02-13T01:15:30.925Z,14.48
2023-02-13T01:17:57.558Z,14.77
2023-02-13T01:20:24.966Z,16.23
2023-02-13T01:22:51.484Z,15.40
2023-02-13T01:25:17.992Z,16.70
2023-02-13T01:27:44.469Z,15.43
2023-02-13T01:30:14.230Z,16.27
2023-02-13T01:32:41.890Z,14.95
2023-02-13T01:35:09.585Z,16.63
2023-02-13T01:37:36.543Z,15.73
2023-02-13T01:40:04.451Z,14.73
2023-02-13T01:42:34.119Z,15.95
2023-02-13T01:45:15.762Z,15.05
2023-02-13T01:47:47.890Z,17.25
2023-02-13T01:50:24.515Z,15.50
2023-02-13T01:52:59.959Z,17.13
2023-02-13T01:55:29.320Z,15.25
2023-02-13T01:58:06.585Z,15.63
2023-02-13T02:00:34.583Z,16.73
2023-02-13T02:03:06.968Z,16.35
2023-02-13T02:05:34.900Z,14.93
2023-02-13T02:08:03.921Z,15.65
2023-02-13T02:10:32.461Z,16.92
2023-02-13T02:13:06.801Z,16.10
2023-02-13T02:15:33.407Z,17.95
2023-02-13T02:17:59.870Z,16.25
2023-02-13T02:20:36.575Z,15.57
2023-02-13T02:23:21.725Z,14.73
2023-02-13T02:25:57.311Z,16.05
2023-02-13T02:28:51.267Z,16.65
2023-02-13T02:31:55.365Z,15.82
2023-02-13T02:34:38.518Z,15.90
2023-02-13T02:37:16.386Z,15.95
2023-02-13T02:40:11.847Z,16.48
2023-02-13T02:43:03.961Z,15.85
2023-02-13T02:45:42.879Z,15.02
2023-02-13T02:48:56.415Z,15.88
2023-02-13T02:51:45.423Z,14.38
2023-02-13T02:54:51.821Z,15.48
2023-02-13T02:57:24.861Z,16.40
2023-02-13T03:00:11.950Z,14.80
2023-02-13T03:02:57.269Z,15.07
2023-02-13T03:05:50.238Z,13.13
2023-02-13T03:08:38.056Z,14.10
2023-02-13T03:11:24.091Z,15.93
2023-02-13T03:13:50.530Z,14.52
2023-02-13T03:16:39.210Z,13.82
2023-02-13T03:19:31.306Z,16.73
2023-02-13T03:22:18.747Z,15.05
2023-02-13T03:25:10.963Z,17.10
2023-02-13T03:28:07.603Z,13.38
2023-02-13T03:30:42.924Z,16.02
2023-02-13T03:33:16.961Z,15.43
2023-02-13T03:36:31.028Z,15.05
2023-02-13T03:39:06.960Z,14.52
2023-02-13T03:41:45.189Z,15.23
2023-02-13T03:44:18.641Z,16.40
2023-02-13T03:46:48.647Z,15.75
2023-02-13T03:49:42.264Z,15.25
2023-02-13T03:52:11.643Z,15.15
2023-02-13T03:55:09.647Z,15.68
2023-02-13T03:57:58.441Z,14.80
2023-02-13T04:00:28.583Z,17.08
2023-02-13T04:03:08.792Z,16.05
2023-02-13T04:05:41.837Z,15.43
2023-02-13T04:08:08.485Z,14.70
2023-02-13T04:10:40.693Z,15.70
2023-02-13T04:13:18.774Z,14.80
2023-02-13T04:16:01.200Z,14.05
2023-02-13T04:18:30.877Z,14.25
2023-02-13T04:21:01.122Z,15.40
2023-02-13T04:23:27.731Z,14.32
2023-02-13T04:25:56.086Z,14.27
2023-02-13T04:28:22.826Z,13.23
2023-02-13T04:30:50.626Z,15.10
2023-02-13T04:33:17.382Z,13.50
2023-02-13T04:35:44.137Z,14.23
2023-02-13T04:38:10.608Z,14.30
2023-02-13T04:40:37.019Z,13.18
2023-02-13T04:43:03.556Z,13.95
2023-02-13T04:45:30.222Z,15.18
2023-02-13T04:47:57.639Z,14.77
2023-02-13T04:50:25.484Z,15.63
2023-02-13T04:52:56.574Z,14.10
2023-02-13T04:55:25.137Z,14.55
2023-02-13T04:57:55.865Z,16.95
2023-02-13T05:00:24.395Z,16.08
2023-02-13T05:02:50.937Z,15.75
2023-02-13T05:05:17.856Z,14.10
2023-02-13T05:07:44.323Z,15.95
2023-02-13T05:10:11.843Z,15.00
2023-02-13T05:12:38.295Z,14.18
2023-02-13T05:15:06.240Z,13.23
2023-02-13T05:17:32.644Z,12.23
2023-02-13T05:19:59.906Z,16.52
2023-02-13T05:22:44.785Z,17.95
2023-02-13T05:25:11.224Z,16.98
2023-02-13T05:27:37.646Z,18.30
2023-02-13T05:30:04.336Z,15.65
2023-02-13T05:32:30.759Z,19.98
2023-02-13T05:34:57.119Z,17.95
2023-02-13T05:37:23.528Z,15.75
2023-02-13T05:39:49.913Z,20.42
2023-02-13T05:42:16.322Z,18.38
2023-02-13T05:44:42.726Z,20.27
2023-02-13T05:47:09.140Z,19.70
2023-02-13T05:49:35.574Z,17.80
2023-02-13T05:52:02.012Z,19.38
2023-02-13T05:54:28.445Z,18.80
2023-02-13T05:56:54.858Z,16.63
2023-02-13T05:59:23.751Z,17.88
2023-02-13T06:01:50.537Z,18.35
2023-02-13T06:04:17.024Z,19.58
2023-02-13T06:06:44.826Z,19.15
2023-02-13T06:09:11.193Z,20.15
2023-02-13T06:11:37.564Z,17.45
2023-02-13T06:14:04.058Z,19.35
2023-02-13T06:16:31.114Z,20.40
2023-02-13T06:18:57.919Z,18.17
2023-02-13T06:21:24.300Z,15.25
2023-02-13T06:23:50.879Z,18.75
2023-02-13T06:26:17.407Z,20.85
2023-02-13T06:28:43.864Z,19.13
2023-02-13T06:31:10.522Z,21.35
2023-02-13T06:33:37.058Z,20.73
2023-02-13T06:36:03.649Z,20.77
2023-02-13T06:38:30.607Z,20.15
2023-02-13T06:41:02.217Z,19.80
2023-02-13T06:43:28.855Z,18.88
2023-02-13T06:45:55.395Z,18.30
2023-02-13T06:48:22.157Z,19.42
2023-02-13T06:50:48.667Z,18.00
2023-02-13T06:53:15.080Z,20.20
2023-02-13T06:55:41.572Z,19.33
2023-02-13T06:58:07.933Z,19.20
2023-02-13T07:00:34.582Z,19.02
2023-02-13T07:03:02.971Z,18.52
2023-02-13T07:05:29.893Z,18.70
2023-02-13T07:07:56.567Z,16.88
2023-02-13T07:10:23.333Z,14.73
2023-02-13T07:13:03.665Z,15.88
2023-02-13T07:15:32.623Z,15.15
2023-02-13T07:17:59.356Z,18.77
2023-02-13T07:20:26.707Z,17.83
2023-02-13T07:22:53.144Z,16.73
2023-02-13T07:25:19.799Z,18.85
2023-02-13T07:27:46.154Z,19.20
2023-02-13T07:30:12.747Z,15.60
2023-02-13T07:32:39.166Z,16.08
2023-02-13T07:35:05.963Z,17.45
2023-02-13T07:37:32.544Z,18.00
2023-02-13T07:39:59.160Z,17.42
2023-02-13T07:42:25.582Z,18.58
2023-02-13T07:44:52.004Z,16.88
2023-02-13T07:47:20.134Z,19.77
2023-02-13T07:49:46.782Z,17.63
2023-02-13T07:52:13.281Z,16.88
2023-02-13T07:54:47.235Z,17.88
2023-02-13T07:57:15.151Z,18.15
2023-02-13T07:59:41.543Z,16.70
2023-02-13T08:02:12.684Z,18.60
2023-02-13T08:04:39.112Z,17.17
2023-02-13T08:07:05.543Z,16.33
2023-02-13T08:09:50.697Z,17.70
2023-02-13T08:12:17.197Z,15.98
2023-02-13T08:14:43.612Z,15.38
2023-02-13T08:17:10.069Z,17.80
2023-02-13T08:19:36.589Z,16.88
2023-02-13T08:22:02.998Z,16.92
2023-02-13T08:24:29.368Z,16.40
2023-02-13T08:26:56.635Z,18.20
2023-02-13T08:29:23.057Z,16.80
2023-02-13T08:31:49.509Z,16.88
2023-02-13T08:34:15.976Z,16.77
2023-02-13T08:36:42.428Z,18.35
2023-02-13T08:39:12.063Z,16.80
2023-02-13T08:41:38.549Z,18.35
2023-02-13T08:44:05.245Z,16.10
2023-02-13T08:46:31.838Z,17.80
2023-02-13T08:48:58.294Z,15.05
2023-02-13T08:51:24.715Z,15.50
2023-02-13T08:53:51.141Z,16.60
2023-02-13T08:56:17.602Z,16.63
2023-02-13T08:58:44.169Z,12.00
2023-02-13T09:01:10.644Z,15.82
2023-02-13T09:03:37.106Z,15.95
2023-02-13T09:06:03.947Z,14.85
2023-02-13T09:08:30.901Z,15.25
2023-02-13T09:10:59.750Z,15.13
2023-02-13T09:13:27.020Z,15.02
2023-02-13T09:15:53.582Z,14.38
2023-02-13T09:18:20.186Z,12.05
2023-02-13T09:20:46.585Z,13.75
2023-02-13T09:23:13.028Z,13.55
2023-02-13T09:25:39.526Z,14.13
2023-02-13T09:28:06.150Z,14.35
2023-02-13T09:30:32.726Z,15.52
2023-02-13T09:32:59.184Z,13.55
2023-02-13T09:35:25.606Z,15.18
2023-02-13T09:37:51.994Z,12.02
2023-02-13T09:40:25.282Z,13.77
2023-02-13T09:42:53.042Z,11.52
2023-02-13T09:45:21.926Z,11.13
2023-02-13T09:47:48.878Z,14.00
2023-02-13T09:50:31.389Z,12.73
2023-02-13T09:52:59.376Z,11.35
2023-02-13T09:55:52.795Z,12.43
2023-02-13T09:58:33.629Z,14.02
2023-02-13T10:01:03.088Z,12.20
2023-02-13T10:03:43.719Z,12.80
2023-02-13T10:06:23.229Z,12.35
2023-02-13T10:09:17.353Z,12.02
2023-02-13T10:12:09.828Z,14.73
2023-02-13T10:14:53.255Z,12.43
2023-02-13T10:17:31.450Z,11.82
2023-02-13T10:20:03.336Z,12.43
2023-02-13T10:22:35.916Z,12.00
2023-02-13T10:25:15.975Z,12.57
2023-02-13T10:27:53.377Z,13.25
2023-02-13T10:30:25.202Z,14.07
2023-02-13T10:33:19.619Z,14.18
2023-02-13T10:36:09.351Z,13.43
2023-02-13T10:38:42.015Z,13.45
2023-02-13T10:41:45.768Z,12.90
2023-02-13T10:44:38.020Z,12.10
2023-02-13T10:47:28.222Z,13.25
2023-02-13T10:50:09.571Z,11.85
2023-02-13T10:52:46.163Z,12.77
2023-02-13T10:55:27.136Z,11.68
2023-02-13T10:58:19.863Z,12.02
2023-02-13T11:00:56.228Z,12.02
2023-02-13T11:03:28.758Z,12.98
2023-02-13T11:05:58.044Z,13.43
2023-02-13T11:08:33.148Z,13.57
2023-02-13T11:10:59.828Z,13.75
2023-02-13T11:13:29.825Z,13.70
2023-02-13T11:15:56.658Z,13.55
2023-02-13T11:18:26.365Z,13.10
2023-02-13T11:21:11.215Z,12.27
2023-02-13T11:26:09.892Z,15.15
2023-02-13T11:28:48.721Z,14.77
2023-02-13T11:31:24.130Z,13.85
2023-02-13T11:33:51.421Z,14.70
2023-02-13T11:36:30.386Z,14.82
2023-02-13T11:39:06.305Z,12.45
2023-02-13T11:41:40.868Z,14.10
2023-02-13T11:44:21.705Z,15.15
2023-02-13T11:46:50.606Z,13.88
2023-02-13T11:49:23.071Z,15.38
2023-02-13T11:51:55.839Z,15.52
2023-02-13T11:54:39.059Z,14.32
2023-02-13T11:57:25.488Z,16.05
2023-02-13T11:59:53.478Z,15.13
2023-02-13T12:02:22.687Z,13.27
2023-02-13T12:04:52.428Z,15.20
2023-02-13T12:07:29.645Z,14.18
2023-02-13T12:10:14.691Z,14.63
2023-02-13T12:12:47.341Z,12.48
2023-02-13T12:15:30.049Z,14.25
2023-02-13T12:18:04.943Z,13.43
2023-02-13T12:20:53.338Z,13.85
2023-02-13T12:23:58.115Z,13.40
2023-02-13T12:26:40.966Z,14.38
2023-02-13T12:29:34.250Z,13.65
2023-02-13T12:32:17.703Z,15.10
2023-02-13T12:35:05.157Z,12.50
2023-02-13T12:38:12.971Z,14.18
2023-02-13T12:40:58.247Z,13.52
2023-02-13T12:43:39.845Z,13.57
2023-02-13T12:46:21.956Z,13.38
2023-02-13T12:49:09.869Z,12.30
2023-02-13T12:52:03.279Z,12.68
2023-02-13T12:54:57.059Z,14.30
2023-02-13T12:57:36.604Z,12.25
2023-02-13T13:00:19.439Z,12.30
2023-02-13T13:03:05.617Z,14.32
2023-02-13T13:06:10.990Z,14.27
2023-02-13T13:08:47.163Z,13.40
2023-02-13T13:11:41.022Z,14.15
2023-02-13T13:14:17.459Z,12.68
2023-02-13T13:17:11.682Z,13.15
2023-02-13T13:19:50.948Z,13.83
2023-02-13T13:22:35.389Z,16.30
2023-02-13T13:25:27.474Z,12.50
2023-02-13T13:28:02.000Z,14.27
2023-02-13T13:30:33.846Z,12.48
2023-02-13T13:33:18.421Z,14.52
2023-02-13T13:36:02.149Z,14.35
2023-02-13T13:38:42.819Z,13.75
2023-02-13T13:41:18.530Z,14.48
2023-02-13T13:44:16.001Z,14.68
2023-02-13T13:47:07.264Z,13.23
2023-02-13T13:49:48.515Z,15.45
2023-02-13T13:52:33.058Z,12.82
2023-02-13T13:55:02.613Z,14.52
2023-02-13T13:57:41.301Z,14.55
2023-02-13T14:00:13.974Z,13.35
2023-02-13T14:02:47.208Z,14.60
2023-02-13T14:05:13.593Z,14.48
2023-02-13T14:07:41.852Z,14.90
2023-02-13T14:10:26.412Z,15.82
2023-02-13T14:12:55.746Z,11.75
2023-02-13T14:15:34.245Z,13.27
2023-02-13T14:18:20.520Z,14.30
2023-02-13T14:21:06.317Z,14.25
2023-02-13T14:23:52.591Z,15.88
2023-02-13T14:26:29.928Z,15.45
2023-02-13T14:28:58.224Z,16.13
2023-02-13T14:31:34.673Z,15.30
2023-02-13T14:34:04.646Z,15.10
2023-02-13T14:36:36.850Z,15.27
2023-02-13T14:39:08.112Z,14.48
2023-02-13T14:41:58.423Z,15.52
2023-02-13T14:44:43.320Z,12.43
2023-02-13T14:47:40.279Z,12.85
2023-02-13T14:50:08.160Z,15.27
2023-02-13T14:52:40.166Z,14.68
2023-02-13T14:55:28.223Z,15.25
2023-02-13T14:58:05.909Z,21.05
2023-02-13T15:00:36.960Z,17.48
2023-02-13T15:03:20.497Z,13.98
2023-02-13T15:05:52.846Z,13.13
2023-02-13T15:08:29.875Z,15.95
2023-02-13T15:10:57.658Z,14.52
2023-02-13T15:13:34.640Z,14.45
2023-02-13T15:16:05.735Z,15.90
2023-02-13T15:18:40.086Z,16.33
2023-02-13T15:21:06.702Z,17.38
2023-02-13T15:23:34.673Z,16.90
2023-02-13T15:26:06.545Z,15.45
2023-02-13T15:28:34.634Z,15.80
2023-02-13T15:31:07.271Z,13.77
2023-02-13T15:33:49.001Z,15.27
2023-02-13T15:36:21.594Z,16.80
2023-02-13T15:38:48.057Z,17.02
2023-02-13T15:41:21.036Z,15.95
2023-02-13T15:43:53.524Z,17.90
2023-02-13T15:46:33.742Z,17.30
2023-02-13T15:49:05.525Z,16.88
2023-02-13T15:51:32.266Z,16.92
2023-02-13T15:54:01.670Z,15.90
2023-02-13T15:58:56.620Z,14.48
2023-02-13T16:01:23.908Z,14.65
2023-02-13T16:03:56.414Z,16.13
2023-02-13T16:06:23.812Z,16.95
2023-02-13T16:08:54.178Z,17.27
2023-02-13T16:11:36.998Z,23.05
2023-02-13T16:14:08.803Z,18.98
2023-02-13T16:16:46.355Z,17.52
2023-02-13T16:19:40.782Z,16.77
2023-02-13T16:22:26.200Z,17.98
2023-02-13T16:24:55.748Z,21.27
2023-02-13T16:27:27.595Z,19.90
2023-02-13T16:30:00.759Z,21.52
2023-02-13T16:32:30.979Z,20.98
2023-02-13T16:35:14.846Z,22.95
2023-02-13T16:37:50.340Z,22.65
2023-02-13T16:40:30.945Z,21.75
2023-02-13T16:43:34.659Z,21.30
2023-02-13T16:46:19.122Z,19.48
2023-02-13T16:48:58.259Z,21.13
2023-02-13T16:51:42.274Z,20.40
2023-02-13T16:54:11.530Z,20.73
2023-02-13T16:56:44.251Z,22.17
2023-02-13T16:59:22.607Z,20.05
2023-02-13T17:02:02.370Z,21.45
2023-02-13T17:04:28.895Z,19.30
2023-02-13T17:06:55.823Z,19.20
2023-02-13T17:09:22.958Z,19.10
2023-02-13T17:11:53.650Z,18.52
2023-02-13T17:14:20.715Z,18.92
2023-02-13T17:16:48.652Z,21.20
2023-02-13T17:19:15.159Z,20.98
2023-02-13T17:21:42.260Z,20.50
2023-02-13T17:24:17.269Z,19.20
2023-02-13T17:26:43.717Z,21.15
2023-02-13T17:29:10.155Z,21.30
2023-02-13T17:31:37.011Z,21.00
2023-02-13T17:34:05.160Z,21.30
2023-02-13T17:36:31.621Z,20.80
2023-02-13T17:38:58.289Z,25.00
2023-02-13T17:41:24.754Z,22.25
2023-02-13T17:43:51.222Z,24.58
2023-02-13T17:46:17.843Z,20.67
2023-02-13T17:48:44.395Z,20.50
2023-02-13T17:51:13.934Z,22.08
2023-02-13T17:53:40.537Z,22.70
2023-02-13T17:56:06.952Z,20.58
2023-02-13T17:58:33.324Z,22.08
2023-02-13T18:01:00.089Z,21.33
2023-02-13T18:03:26.731Z,20.92
2023-02-13T18:05:54.202Z,21.33
2023-02-13T18:08:20.673Z,20.13
2023-02-13T18:10:47.193Z,21.70
2023-02-13T18:13:13.869Z,22.30
2023-02-13T18:15:43.410Z,21.25
2023-02-13T18:18:11.308Z,22.10
2023-02-13T18:20:37.720Z,22.30
2023-02-13T18:23:04.190Z,23.15
2023-02-13T18:25:30.634Z,25.48
2023-02-13T18:27:57.143Z,27.77
2023-02-13T18:30:24.391Z,26.38
2023-02-13T18:32:55.992Z,27.15
2023-02-13T18:35:23.069Z,33.47
2023-02-13T18:37:50.206Z,32.17
2023-02-13T18:40:17.675Z,34.97
2023-02-13T18:42:44.336Z,31.90
2023-02-13T18:45:12.070Z,29.58
2023-02-13T18:47:38.793Z,31.98
2023-02-13T18:50:05.944Z,31.92
2023-02-13T18:52:32.309Z,31.35
2023-02-13T18:54:58.726Z,33.33
2023-02-13T18:57:25.257Z,32.05
2023-02-13T18:59:51.759Z,31.20
2023-02-13T19:02:18.149Z,32.17
2023-02-13T19:04:44.658Z,35.30
2023-02-13T19:07:11.015Z,33.38
2023-02-13T19:09:40.255Z,33.55
2023-02-13T19:12:07.732Z,34.03
2023-02-13T19:14:34.200Z,35.45
2023-02-13T19:17:00.763Z,35.83
2023-02-13T19:19:27.236Z,32.90
2023-02-13T19:21:53.683Z,34.03
2023-02-13T19:24:20.071Z,34.80
2023-02-13T19:26:47.228Z,33.60
2023-02-13T19:29:13.603Z,34.72
2023-02-13T19:31:40.159Z,35.85
2023-02-13T19:34:06.900Z,34.83
2023-02-13T19:36:33.403Z,34.30
2023-02-13T19:39:05.183Z,30.65
2023-02-13T19:41:32.878Z,32.83
2023-02-13T19:44:00.468Z,31.95
2023-02-13T19:46:29.702Z,31.98
2023-02-13T19:48:56.783Z,34.50
2023-02-13T19:51:25.495Z,33.13
2023-02-13T19:54:00.278Z,32.10
2023-02-13T19:56:28.236Z,31.48
2023-02-13T19:58:54.827Z,31.13
2023-02-13T20:01:23.019Z,33.22
2023-02-13T20:03:49.530Z,33.65
2023-02-13T20:06:19.396Z,31.70
2023-02-13T20:08:46.289Z,34.15
2023-02-13T20:11:14.484Z,32.97
2023-02-13T20:13:41.252Z,30.73
2023-02-13T20:16:12.855Z,32.45
2023-02-13T20:18:39.955Z,31.15
2023-02-13T20:21:11.452Z,28.80
2023-02-13T20:23:37.954Z,28.58
2023-02-13T20:26:13.799Z,28.20
2023-02-13T20:28:41.776Z,27.77
2023-02-13T20:31:16.127Z,29.33
2023-02-13T20:33:42.781Z,27.52
2023-02-13T20:36:15.290Z,29.05
2023-02-13T20:38:42.514Z,25.55
2023-02-13T20:41:09.724Z,29.65
2023-02-13T20:43:36.184Z,30.45
2023-02-13T20:46:02.728Z,26.92
2023-02-13T20:48:29.199Z,29.83
2023-02-13T20:51:03.373Z,32.28
2023-02-13T20:53:30.694Z,33.35
2023-02-13T20:56:24.565Z,30.38
2023-02-13T20:58:52.302Z,29.92
2023-02-13T21:01:22.464Z,30.70
2023-02-13T21:03:53.639Z,28.83
2023-02-13T21:06:22.797Z,28.85
2023-02-13T21:08:49.936Z,30.40
2023-02-13T21:11:17.531Z,30.55
2023-02-13T21:13:43.998Z,31.45
2023-02-13T21:16:16.512Z,31.20
2023-02-13T21:18:43.783Z,27.73
2023-02-13T21:21:11.208Z,28.60
2023-02-13T21:23:38.149Z,27.20
2023-02-13T21:26:16.804Z,28.05
2023-02-13T21:28:48.566Z,27.45
2023-02-13T21:31:18.416Z,26.92
2023-02-13T21:33:45.202Z,26.92
2023-02-13T21:36:12.824Z,26.77
2023-02-13T21:38:41.122Z,29.17
2023-02-13T21:41:14.642Z,28.73
2023-02-13T21:43:42.222Z,28.40
2023-02-13T21:46:10.738Z,26.77
2023-02-13T21:48:38.076Z,26.00
2023-02-13T21:51:13.056Z,26.55
2023-02-13T21:53:40.010Z,28.63
2023-02-13T21:56:13.707Z,28.88
2023-02-13T21:58:42.249Z,28.07
2023-02-13T22:01:26.090Z,27.10
2023-02-13T22:03:58.418Z,28.42
2023-02-13T22:06:27.325Z,28.83
2023-02-13T22:09:02.185Z,26.45
2023-02-13T22:11:29.074Z,29.17
2023-02-13T22:13:57.616Z,28.65
2023-02-13T22:16:24.435Z,27.85
2023-02-13T22:18:51.132Z,28.70
2023-02-13T22:21:20.620Z,27.00
2023-02-13T22:23:48.206Z,28.77
2023-02-13T22:26:20.955Z,26.13
2023-02-13T22:28:47.670Z,26.15
2023-02-13T22:31:15.262Z,27.48
2023-02-13T22:33:42.915Z,27.80
2023-02-13T22:36:12.466Z,28.05
2023-02-13T22:38:40.023Z,31.35
2023-02-13T22:41:07.329Z,30.65
2023-02-13T22:43:34.504Z,29.25
2023-02-13T22:46:13.281Z,31.25
2023-02-13T22:48:41.132Z,31.27
2023-02-13T22:51:10.095Z,31.25
2023-02-13T22:53:37.520Z,31.08
2023-02-13T22:56:05.889Z,28.38
2023-02-13T22:58:32.452Z,28.77
2023-02-13T23:00:59.834Z,26.20
2023-02-13T23:03:26.730Z,28.88
2023-02-13T23:05:53.607Z,27.48
2023-02-13T23:08:20.032Z,30.63
2023-02-13T23:11:06.386Z,31.80
2023-02-13T23:13:32.774Z,27.98
2023-02-13T23:15:59.367Z,30.90
2023-02-13T23:18:25.889Z,29.73
2023-02-13T23:20:52.358Z,27.95
2023-02-13T23:23:18.881Z,27.33
2023-02-13T23:25:45.339Z,27.10
2023-02-13T23:28:11.744Z,26.83
2023-02-13T23:30:39.525Z,26.63
2023-02-13T23:33:06.039Z,28.02
2023-02-13T23:35:32.577Z,27.40
2023-02-13T23:37:59.033Z,28.88
2023-02-13T23:40:25.515Z,31.00
2023-02-13T23:42:51.938Z,27.85
2023-02-13T23:45:18.479Z,27.83
2023-02-13T23:47:44.899Z,27.10
2023-02-13T23:50:11.362Z,28.45
2023-02-13T23:52:37.891Z,25.80
2023-02-13T23:55:04.810Z,27.30
2023-02-13T23:57:31.322Z,28.90
2023-02-13T23:59:57.675Z,27.73
